createdAt,value
2022-11-27T00:00:29.577Z,101648.91
2022-11-27T00:05:32.411Z,101633.78
2022-11-27T00:10:35.276Z,101628.63
2022-11-27T00:15:39.417Z,101626.06
2022-11-27T00:20:42.316Z,101617.38
2022-11-27T00:25:51.305Z,101599.81
2022-11-27T00:30:59.688Z,101601.06
2022-11-27T00:36:03.552Z,101590.31
2022-11-27T00:41:08.270Z,101591.72
2022-11-27T00:46:13.144Z,101594.72
2022-11-27T00:51:18.645Z,101584.81
2022-11-27T00:56:24.097Z,101585.16
2022-11-27T01:01:31.363Z,101581.91
2022-11-27T01:06:34.370Z,101574.19
2022-11-27T01:11:38.281Z,101582.28
2022-11-27T01:16:43.410Z,101570.94
2022-11-27T01:21:47.168Z,101557.78
2022-11-27T01:26:49.960Z,101555.38
2022-11-27T01:31:54.146Z,101550.28
2022-11-27T01:36:56.951Z,101554.13
2022-11-27T01:41:59.820Z,101545.94
2022-11-27T01:47:06.500Z,101564.66
2022-11-27T01:52:13.499Z,101559.44
2022-11-27T01:57:19.951Z,101555.13
2022-11-27T02:02:24.233Z,101543.75
2022-11-27T02:07:27.386Z,101546.41
2022-11-27T02:12:36.922Z,101533.38
2022-11-27T02:17:47.972Z,101539.66
2022-11-27T02:23:24.452Z,101519.59
2022-11-27T02:28:42.467Z,101509.28
2022-11-27T02:33:54.992Z,101503.28
2022-11-27T02:39:04.696Z,101504.22
2022-11-27T02:44:10.630Z,101490.09
2022-11-27T02:49:18.564Z,101486.84
2022-11-27T02:54:26.436Z,101476.41
2022-11-27T02:59:33.080Z,101463.97
2022-11-27T03:04:42.202Z,101459.53
2022-11-27T03:09:48.951Z,101461.34
2022-11-27T03:14:51.758Z,101458.69
2022-11-27T03:20:00.584Z,101461.47
2022-11-27T03:25:04.032Z,101467.84
2022-11-27T03:30:09.680Z,101460.69
2022-11-27T03:35:17.287Z,101455.38
2022-11-27T03:40:20.769Z,101447.28
2022-11-27T03:45:31.354Z,101447.19
2022-11-27T03:50:47.439Z,101439.22
2022-11-27T03:55:56.372Z,101439.34
2022-11-27T04:01:01.257Z,101418.13
2022-11-27T04:06:05.612Z,101412.06
2022-11-27T04:11:08.978Z,101409.56
2022-11-27T04:16:11.837Z,101428.00
2022-11-27T04:21:16.905Z,101422.78
2022-11-27T04:26:19.784Z,101409.50
2022-11-27T04:31:22.569Z,101410.59
2022-11-27T04:36:26.739Z,101413.38
2022-11-27T04:41:29.827Z,101402.03
2022-11-27T04:46:33.109Z,101410.34
2022-11-27T04:51:37.349Z,101403.31
2022-11-27T04:56:40.185Z,101397.06
2022-11-27T05:01:42.971Z,101386.41
2022-11-27T05:06:47.177Z,101385.31
2022-11-27T05:11:50.071Z,101382.84
2022-11-27T05:16:54.520Z,101367.03
2022-11-27T05:21:59.876Z,101361.34
2022-11-27T05:27:02.833Z,101359.31
2022-11-27T05:32:05.908Z,101347.72
2022-11-27T05:37:11.993Z,101355.13
2022-11-27T05:42:17.963Z,101347.75
2022-11-27T05:47:20.782Z,101354.91
2022-11-27T05:52:24.983Z,101355.59
2022-11-27T05:57:28.179Z,101347.00
2022-11-27T06:02:31.300Z,101338.13
2022-11-27T06:07:35.532Z,101326.00
2022-11-27T06:12:38.352Z,101321.84
2022-11-27T06:17:41.204Z,101326.28
2022-11-27T06:22:45.451Z,101323.16
2022-11-27T06:27:48.340Z,101309.59
2022-11-27T06:32:51.258Z,101300.09
2022-11-27T06:37:55.492Z,101304.19
2022-11-27T06:42:58.304Z,101285.88
2022-11-27T06:48:01.145Z,101284.91
2022-11-27T06:53:05.319Z,101270.88
2022-11-27T06:58:08.136Z,101281.28
2022-11-27T07:03:10.907Z,101287.56
2022-11-27T07:08:15.104Z,101288.38
2022-11-27T07:13:17.941Z,101288.81
2022-11-27T07:18:20.771Z,101282.34
2022-11-27T07:23:24.937Z,101282.28
2022-11-27T07:28:27.760Z,101272.41
2022-11-27T07:33:30.695Z,101270.56
2022-11-27T07:38:35.184Z,101280.03
2022-11-27T07:43:38.450Z,101261.66
2022-11-27T07:48:41.360Z,101257.06
2022-11-27T07:53:46.064Z,101253.34
2022-11-27T07:58:49.261Z,101259.72
2022-11-27T08:03:52.137Z,101252.31
2022-11-27T08:08:56.866Z,101247.50
2022-11-27T08:14:01.526Z,101254.09
2022-11-27T08:19:04.716Z,101260.81
2022-11-27T08:24:09.947Z,101233.91
2022-11-27T08:29:13.683Z,101230.56
2022-11-27T08:34:16.479Z,101223.72
2022-11-27T08:39:20.795Z,101222.59
2022-11-27T08:44:23.881Z,101225.66
2022-11-27T08:49:26.643Z,101222.38
2022-11-27T08:54:30.853Z,101206.31
2022-11-27T08:59:33.652Z,101203.31
2022-11-27T09:04:36.501Z,101205.13
2022-11-27T09:09:40.804Z,101188.19
2022-11-27T09:14:43.733Z,101184.19
2022-11-27T09:19:46.709Z,101185.91
2022-11-27T09:24:50.805Z,101182.19
2022-11-27T09:29:53.755Z,101183.03
2022-11-27T09:34:56.793Z,101171.56
2022-11-27T09:40:00.958Z,101164.50
2022-11-27T09:45:06.764Z,101150.41
2022-11-27T09:50:15.078Z,101158.34
2022-11-27T09:55:24.679Z,101150.13
2022-11-27T10:00:27.744Z,101146.31
2022-11-27T10:05:43.521Z,101144.28
2022-11-27T10:11:01.781Z,101131.56
2022-11-27T10:16:11.310Z,101132.03
2022-11-27T10:21:20.966Z,101114.16
2022-11-27T10:26:30.263Z,101118.38
2022-11-27T10:31:37.519Z,101110.75
2022-11-27T10:36:45.691Z,101100.38
2022-11-27T10:41:58.139Z,101092.44
2022-11-27T10:47:04.936Z,101087.66
2022-11-27T10:52:12.203Z,101092.16
2022-11-27T10:57:41.561Z,101090.88
2022-11-27T11:02:44.493Z,101078.25
2022-11-27T11:07:57.722Z,101072.06
2022-11-27T11:13:16.588Z,101074.16
2022-11-27T11:18:20.043Z,101076.13
2022-11-27T11:23:26.724Z,101077.03
2022-11-27T11:28:36.510Z,101064.72
2022-11-27T11:33:53.400Z,101047.03
2022-11-27T11:38:56.741Z,101049.16
2022-11-27T11:44:03.288Z,101044.09
2022-11-27T11:49:08.402Z,101033.22
2022-11-27T11:54:24.655Z,101027.59
2022-11-27T11:59:43.749Z,101015.28
2022-11-27T12:05:06.201Z,100999.16
2022-11-27T12:10:15.140Z,100987.66
2022-11-27T12:15:27.332Z,100988.13
2022-11-27T12:20:42.219Z,100980.59
2022-11-27T12:25:54.490Z,100965.31
2022-11-27T12:31:07.388Z,100959.38
2022-11-27T12:36:21.804Z,100962.72
2022-11-27T12:42:09.250Z,100952.91
2022-11-27T12:47:19.974Z,100938.16
2022-11-27T12:52:26.665Z,100930.91
2022-11-27T12:57:37.719Z,100927.47
2022-11-27T13:02:46.446Z,100925.72
2022-11-27T13:07:56.670Z,100910.16
2022-11-27T13:13:06.089Z,100906.97
2022-11-27T13:18:19.878Z,100897.63
2022-11-27T13:23:22.670Z,100879.28
2022-11-27T13:28:32.161Z,100871.25
2022-11-27T13:33:41.089Z,100874.69
2022-11-27T13:38:45.177Z,100858.91
2022-11-27T13:43:48.394Z,100851.16
2022-11-27T13:48:56.518Z,100848.00
2022-11-27T13:54:11.782Z,100841.91
2022-11-27T13:59:16.804Z,100840.69
2022-11-27T14:04:20.947Z,100823.28
2022-11-27T14:09:36.176Z,100798.09
2022-11-27T14:14:39.342Z,100796.47
2022-11-27T14:19:46.250Z,100789.88
2022-11-27T14:24:55.915Z,100781.47
2022-11-27T14:29:58.734Z,100769.38
2022-11-27T14:35:02.877Z,100770.34
2022-11-27T14:40:14.317Z,100761.03
2022-11-27T14:45:19.786Z,100756.25
2022-11-27T14:50:24.424Z,100758.66
2022-11-27T14:55:34.294Z,100752.16
2022-11-27T15:00:37.459Z,100743.97
2022-11-27T15:05:41.658Z,100748.25
2022-11-27T15:10:44.516Z,100736.41
2022-11-27T15:15:56.947Z,100730.31
2022-11-27T15:21:01.852Z,100707.97
2022-11-27T15:26:15.054Z,100700.34
2022-11-27T15:31:28.328Z,100697.84
2022-11-27T15:36:41.900Z,100708.84
2022-11-27T15:41:52.476Z,100699.28
2022-11-27T15:46:57.345Z,100703.28
2022-11-27T15:52:01.503Z,100702.81
2022-11-27T15:57:04.610Z,100683.94
2022-11-27T16:02:08.880Z,100695.00
2022-11-27T16:07:14.393Z,100683.34
2022-11-27T16:12:17.227Z,100679.94
2022-11-27T16:17:20.192Z,100670.09
2022-11-27T16:22:24.393Z,100654.53
2022-11-27T16:27:27.177Z,100649.00
2022-11-27T16:32:29.969Z,100652.34
2022-11-27T16:37:34.874Z,100647.19
2022-11-27T16:42:38.527Z,100638.44
2022-11-27T16:47:41.292Z,100629.25
2022-11-27T16:52:48.950Z,100653.22
2022-11-27T16:57:55.860Z,100640.41
2022-11-27T17:02:58.893Z,100623.25
2022-11-27T17:08:03.635Z,100619.50
2022-11-27T17:13:06.447Z,100618.91
2022-11-27T17:18:09.288Z,100608.03
2022-11-27T17:23:13.499Z,100611.66
2022-11-27T17:28:17.626Z,100598.72
2022-11-27T17:33:20.919Z,100589.13
2022-11-27T17:38:25.158Z,100584.66
2022-11-27T17:43:30.273Z,100584.34
2022-11-27T17:48:34.442Z,100593.91
2022-11-27T17:53:38.703Z,100594.75
2022-11-27T17:58:42.309Z,100575.94
2022-11-27T18:03:46.184Z,100584.25
2022-11-27T18:08:52.313Z,100582.44
2022-11-27T18:13:55.691Z,100573.66
2022-11-27T18:19:00.436Z,100564.78
2022-11-27T18:29:28.300Z,100562.31
2022-11-27T18:34:31.099Z,100551.91
2022-11-27T18:39:36.244Z,100542.59
2022-11-27T18:44:44.422Z,100541.19
2022-11-27T18:49:48.546Z,100544.25
2022-11-27T18:54:52.904Z,100527.38
2022-11-27T18:59:55.896Z,100527.66
2022-11-27T19:04:58.740Z,100531.06
2022-11-27T19:10:03.023Z,100517.41
2022-11-27T19:15:07.815Z,100520.94
2022-11-27T19:20:11.569Z,100507.16
2022-11-27T19:25:17.015Z,100507.66
2022-11-27T19:30:19.991Z,100503.25
2022-11-27T19:35:25.179Z,100500.94
2022-11-27T19:40:32.230Z,100498.97
2022-11-27T19:45:37.835Z,100491.81
2022-11-27T19:50:41.175Z,100487.19
2022-11-27T19:55:45.494Z,100477.94
2022-11-27T20:00:48.377Z,100479.97
2022-11-27T20:05:53.413Z,100477.69
2022-11-27T20:11:02.920Z,100470.63
2022-11-27T20:16:08.607Z,100458.72
2022-11-27T20:21:14.378Z,100448.47
2022-11-27T20:26:22.019Z,100457.13
2022-11-27T20:31:26.698Z,100450.94
2022-11-27T20:36:31.904Z,100457.88
2022-11-27T20:41:36.397Z,100453.13
2022-11-27T20:46:39.448Z,100441.22
2022-11-27T20:51:42.369Z,100446.56
2022-11-27T20:56:47.551Z,100444.63
2022-11-27T21:01:50.650Z,100432.84
2022-11-27T21:06:53.748Z,100425.72
2022-11-27T21:11:58.032Z,100420.28
2022-11-27T21:17:05.081Z,100408.38
2022-11-27T21:22:09.954Z,100404.16
2022-11-27T21:27:14.121Z,100388.16
2022-11-27T21:32:18.141Z,100389.00
2022-11-27T21:37:23.848Z,100364.63
2022-11-27T21:42:29.225Z,100330.25
2022-11-27T21:47:32.038Z,100293.25
2022-11-27T21:52:35.540Z,100274.94
2022-11-27T21:57:40.143Z,100284.00
2022-11-27T22:02:45.385Z,100286.00
2022-11-27T22:07:48.284Z,100278.28
2022-11-27T22:12:52.491Z,100268.25
2022-11-27T22:17:55.473Z,100295.03
2022-11-27T22:22:58.935Z,100286.47
2022-11-27T22:28:03.149Z,100288.75
2022-11-27T22:33:05.888Z,100273.44
2022-11-27T22:38:09.653Z,100262.56
2022-11-27T22:43:13.807Z,100266.28
2022-11-27T22:48:16.795Z,100242.47
2022-11-27T22:53:19.516Z,100266.53
2022-11-27T22:58:23.955Z,100257.47
2022-11-27T23:03:26.790Z,100268.25
2022-11-27T23:08:29.659Z,100270.25
2022-11-27T23:13:33.875Z,100261.09
2022-11-27T23:18:38.425Z,100237.88
2022-11-27T23:23:41.319Z,100219.50
2022-11-27T23:28:45.644Z,100210.63
2022-11-27T23:33:48.413Z,100212.63
2022-11-27T23:38:51.245Z,100206.34
2022-11-27T23:43:56.031Z,100203.78
2022-11-27T23:49:00.421Z,100203.84
2022-11-27T23:54:07.215Z,100205.53
2022-11-27T23:59:11.387Z,100196.69
